Search for airport 
image banner adimage banner adimage banner ad
image banner ad

1PA7 - Philmont

Located in Huntington Valley, United States

ICAO - 1PA7, IATA -

Data provided by Airmate  

General information

Coordinates: N40°7'27" W75°2'3"
Elevation is 250 feet MSL.
Magnetic variation is -12° East
View others Airports in Pennsylvania

Operational data

Special qualification required
Current time UTC:
Current local time:
Weather at : KPNE - Northeast Philadelphia ( 5 km )
METAR: KPNE 071254Z 06007KT 10SM CLR 13/01 A2993 RMK AO2 SLP135 T01330011
TAF: KPNE 071120Z 0712/0812 04005KT P6SM FEW250 FM072100 12006KT P6SM VCSH BKN070 FM080600 VRB03KT P6SM BKN035 FM081000 VRB02KT P6SM BKN030
View NOTAMs / SUP AIP / TFR affecting this airport [VIEW]
Communications frequencies: [VIEW]

Runways:

Airport contact information

Address: Huntington Valley United States

Satellite view of 1PA7